Time;durP1;ratioP1;P1;durP2;ratioP2;P2;SDS_P1;SDS_P2;PMS_P1;PMS_P2;Temp;Humidity;BMP_temperature;BMP_pressure;BME280_temperature;BME280_humidity;BME280_pressure;Samples;Min_cycle;Max_cycle;Signal;HPM_P1;HPM_P2
2023/03/15 00:01:40;;;;;;;12.10;2.90;;;1.30;99.90;;;;;;6131501;23;20092;-83
2023/03/15 00:08:17;;;;;;;13.57;3.10;;;2.20;99.90;;;;;;6158505;23;20020;-83
2023/03/15 00:10:49;;;;;;;13.97;2.97;;;3.10;99.90;;;;;;6129616;23;20025;-83
2023/03/15 00:13:39;;;;;;;12.33;2.90;;;1.60;99.90;;;;;;6129772;23;20021;-83
2023/03/15 00:16:16;;;;;;;9.63;2.77;;;2.00;99.90;;;;;;6129540;23;20021;-84
2023/03/15 00:18:42;;;;;;;12.07;3.27;;;2.60;99.90;;;;;;6155872;23;20025;-83
2023/03/15 00:21:07;;;;;;;11.93;3.43;;;2.30;99.90;;;;;;6156073;23;20014;-83
2023/03/15 00:23:39;;;;;;;12.37;3.27;;;0.80;99.90;;;;;;6154729;23;20017;-83
2023/03/15 00:26:05;;;;;;;13.73;3.20;;;1.30;99.90;;;;;;6128792;23;20462;-83
2023/03/15 00:28:30;;;;;;;11.10;3.33;;;2.00;99.90;;;;;;6129393;23;20020;-83
2023/03/15 00:38:26;;;;;;;15.00;3.60;;;1.70;99.90;;;;;;6155317;23;20041;-83
2023/03/15 00:41:15;;;;;;;11.63;3.47;;;2.10;99.90;;;;;;6129470;23;20081;-84
2023/03/15 00:43:42;;;;;;;12.20;3.43;;;1.20;99.90;;;;;;6127566;23;20431;-83
2023/03/15 00:46:24;;;;;;;10.83;3.30;;;1.80;99.90;;;;;;6129115;23;20085;-83
2023/03/15 00:49:13;;;;;;;13.60;3.60;;;1.00;99.90;;;;;;6157479;23;20072;-84
2023/03/15 00:59:16;;;;;;;15.00;3.70;;;2.30;99.90;;;;;;5966377;24;20103;-83
2023/03/15 01:01:46;;;;;;;8.83;3.73;;;1.70;99.90;;;;;;6030567;23;20033;-83
2023/03/15 01:05:02;;;;;;;13.73;3.63;;;1.00;99.90;;;;;;6154083;23;20052;-83
2023/03/15 01:07:54;;;;;;;12.20;3.60;;;0.70;99.90;;;;;;6154443;23;20045;-84
2023/03/15 01:10:22;;;;;;;11.33;3.53;;;1.20;99.90;;;;;;6129196;23;20017;-83
2023/03/15 01:12:57;;;;;;;10.83;3.40;;;1.30;99.90;;;;;;6154652;23;20017;-83
2023/03/15 01:15:26;;;;;;;11.70;3.40;;;1.00;99.90;;;;;;6129413;23;20473;-83
2023/03/15 01:17:55;;;;;;;11.20;3.47;;;0.60;99.90;;;;;;6129473;23;20335;-83
2023/03/15 01:20:42;;;;;;;11.27;3.17;;;0.90;99.90;;;;;;6128418;23;20021;-83
2023/03/15 01:23:23;;;;;;;12.53;3.40;;;1.10;99.90;;;;;;6155701;23;20014;-83
2023/03/15 01:25:51;;;;;;;12.80;3.47;;;1.20;99.90;;;;;;6126060;23;20028;-83
2023/03/15 01:28:23;;;;;;;9.53;3.50;;;1.80;99.90;;;;;;6128637;23;20014;-83
2023/03/15 01:31:30;;;;;;;10.40;3.40;;;1.20;99.90;;;;;;6129339;23;20017;-83
2023/03/15 01:34:05;;;;;;;9.13;2.97;;;3.70;99.90;;;;;;6128085;23;20024;-83
2023/03/15 01:36:40;;;;;;;10.10;2.57;;;2.50;99.90;;;;;;6128635;23;20029;-83
2023/03/15 01:39:14;;;;;;;8.00;2.47;;;2.40;99.90;;;;;;6154690;23;20397;-83
2023/03/15 01:41:42;;;;;;;11.43;2.40;;;1.30;99.90;;;;;;6128132;23;20014;-83
2023/03/15 01:44:15;;;;;;;10.53;2.20;;;2.00;99.90;;;;;;6128933;23;20084;-83
2023/03/15 01:46:44;;;;;;;8.57;2.50;;;2.40;99.90;;;;;;6127922;23;20096;-83
2023/03/15 01:52:20;;;;;;;8.83;2.07;;;1.10;99.90;;;;;;6155253;23;20026;-83
2023/03/15 01:55:21;;;;;;;7.63;2.07;;;2.50;99.90;;;;;;6153999;23;20022;-83
2023/03/15 02:01:44;;;;;;;7.73;2.27;;;2.10;99.90;;;;;;6129945;23;20018;-83
2023/03/15 02:05:00;;;;;;;9.20;2.33;;;1.60;99.90;;;;;;6130711;23;20053;-83
2023/03/15 02:11:18;;;;;;;9.20;2.20;;;0.90;99.90;;;;;;6157648;23;20017;-83
2023/03/15 02:13:55;;;;;;;9.07;2.10;;;0.70;99.90;;;;;;6130813;23;20052;-83
2023/03/15 02:16:39;;;;;;;9.70;2.13;;;2.10;99.90;;;;;;6154749;23;20029;-83
2023/03/15 02:23:00;;;;;;;10.27;2.43;;;-0.10;99.90;;;;;;6162998;23;20029;-83
2023/03/15 02:26:26;;;;;;;10.17;2.33;;;2.30;99.90;;;;;;6158211;23;20351;-83
2023/03/15 02:29:00;;;;;;;;;;;0.60;99.90;;;;;;6133952;23;20016;-83
2023/03/15 02:31:37;;;;;;;8.38;1.75;;;1.50;99.90;;;;;;6160278;23;19916;-84
2023/03/15 02:34:06;;;;;;;10.10;2.40;;;2.10;99.90;;;;;;6131307;23;20029;-83
2023/03/15 02:36:38;;;;;;;10.50;1.90;;;1.10;99.90;;;;;;6155975;23;20014;-83
2023/03/15 02:39:19;;;;;;;8.63;2.20;;;1.20;99.90;;;;;;6156976;23;20017;-83
2023/03/15 02:42:52;;;;;;;9.43;2.07;;;1.90;99.90;;;;;;6129963;23;20045;-83
2023/03/15 02:45:51;;;;;;;9.90;2.47;;;2.30;99.90;;;;;;6156799;23;20096;-84
2023/03/15 02:52:30;;;;;;;10.37;2.20;;;2.30;99.90;;;;;;6095014;23;20021;-83
2023/03/15 02:55:31;;;;;;;9.00;1.93;;;1.40;99.90;;;;;;6071041;23;20029;-83
2023/03/15 02:58:05;;;;;;;8.70;1.90;;;1.30;99.90;;;;;;6070382;23;20486;-83
2023/03/15 03:00:40;;;;;;;10.67;1.90;;;0.80;99.90;;;;;;6079859;23;20033;-83
2023/03/15 03:03:14;;;;;;;13.63;2.37;;;0.70;99.90;;;;;;6098336;23;20045;-83
2023/03/15 03:05:46;;;;;;;12.13;1.97;;;0.80;99.90;;;;;;6075522;23;20029;-83
2023/03/15 03:08:15;;;;;;;10.60;1.80;;;1.00;99.90;;;;;;6097607;23;20455;-83
2023/03/15 03:10:41;;;;;;;11.33;1.90;;;;;;;;;;6070148;23;20339;-83
2023/03/15 03:13:59;;;;;;;10.07;1.70;;;0.90;99.90;;;;;;6071167;23;20101;-83
2023/03/15 03:16:50;;;;;;;11.10;2.10;;;1.70;99.90;;;;;;5988345;23;20079;-83
2023/03/15 03:23:17;;;;;;;9.77;2.00;;;1.30;99.90;;;;;;6059103;23;20017;-83
2023/03/15 03:25:45;;;;;;;10.93;1.80;;;0.10;99.90;;;;;;6040711;23;20023;-83
2023/03/15 03:28:17;;;;;;;13.23;1.93;;;1.40;99.90;;;;;;6041616;23;20014;-83
2023/03/15 03:30:50;;;;;;;9.03;1.80;;;0.90;99.90;;;;;;6041567;23;20082;-83
2023/03/15 03:33:16;;;;;;;8.97;1.70;;;0.40;99.90;;;;;;6070687;23;20056;-83
2023/03/15 03:35:50;;;;;;;9.43;1.90;;;0.90;99.90;;;;;;6155731;23;20013;-83
2023/03/15 03:38:25;;;;;;;9.07;2.67;;;0.40;99.90;;;;;;6129725;23;20055;-83
2023/03/15 03:45:12;;;;;;;10.50;1.90;;;1.80;99.90;;;;;;6150598;23;20040;-83
2023/03/15 03:48:50;;;;;;;10.13;2.17;;;0.50;99.90;;;;;;6128996;23;20021;-83
2023/03/15 03:51:18;;;;;;;10.27;2.00;;;0.70;99.90;;;;;;6129163;23;20060;-83
2023/03/15 03:53:49;;;;;;;8.27;1.73;;;0.30;99.90;;;;;;6131876;23;20517;-83
2023/03/15 03:56:20;;;;;;;12.50;1.90;;;0.70;99.90;;;;;;6139183;23;20020;-82
2023/03/15 03:58:58;;;;;;;12.47;2.13;;;1.70;99.90;;;;;;6129912;23;20502;-83
2023/03/15 04:01:33;;;;;;;9.73;1.80;;;0.50;99.90;;;;;;6159342;23;20046;-83
2023/03/15 04:04:07;;;;;;;7.83;1.80;;;1.50;99.90;;;;;;6134047;23;20434;-83
2023/03/15 04:06:44;;;;;;;7.67;2.23;;;2.00;99.90;;;;;;6130120;23;20025;-83
2023/03/15 04:09:14;;;;;;;9.77;1.90;;;0.00;99.90;;;;;;6154964;23;20502;-83
2023/03/15 04:11:49;;;;;;;12.03;2.13;;;0.00;99.90;;;;;;6129566;23;20386;-83
2023/03/15 04:15:04;;;;;;;7.27;1.60;;;0.00;99.90;;;;;;6155416;23;20036;-83
2023/03/15 04:17:45;;;;;;;10.77;1.90;;;1.30;99.90;;;;;;6129483;23;20044;-83
2023/03/15 04:20:11;;;;;;;8.80;2.00;;;0.40;99.90;;;;;;6129170;23;20385;-83
2023/03/15 04:22:39;;;;;;;7.33;1.53;;;0.30;99.90;;;;;;6128529;23;20096;-83
2023/03/15 04:25:11;;;;;;;8.27;1.97;;;0.00;99.90;;;;;;6129976;23;20027;-83
2023/03/15 04:30:25;;;;;;;9.70;2.53;;;0.30;99.90;;;;;;6125017;23;20026;-83
2023/03/15 04:33:14;;;;;;;10.00;1.70;;;0.10;99.90;;;;;;6129950;23;20025;-83
2023/03/15 04:39:24;;;;;;;7.90;2.07;;;-0.60;99.90;;;;;;6155427;23;20016;-83
2023/03/15 04:42:25;;;;;;;11.77;2.33;;;0.20;99.90;;;;;;6129620;23;20370;-83
2023/03/15 04:45:26;;;;;;;11.20;2.00;;;-0.10;99.90;;;;;;6129387;23;20017;-83
2023/03/15 04:51:40;;;;;;;6.07;1.60;;;-0.20;99.90;;;;;;6064953;23;20331;-82
2023/03/15 04:54:12;;;;;;;9.30;1.87;;;1.80;99.90;;;;;;6041310;23;20029;-83
2023/03/15 04:56:44;;;;;;;7.93;1.70;;;0.30;99.90;;;;;;6113222;23;20021;-83
2023/03/15 05:00:19;;;;;;;8.93;1.80;;;0.60;99.90;;;;;;6215758;23;20016;-83
2023/03/15 05:02:53;;;;;;;10.27;1.90;;;-0.20;99.90;;;;;;6214191;23;20016;-82
2023/03/15 05:05:25;;;;;;;7.77;2.00;;;0.40;99.90;;;;;;6186341;23;20020;-82
2023/03/15 05:07:57;;;;;;;9.23;2.10;;;0.40;99.90;;;;;;6207693;23;20013;-83
2023/03/15 05:10:32;;;;;;;12.57;2.00;;;0.10;99.90;;;;;;6188033;23;20099;-83
2023/03/15 05:13:01;;;;;;;10.07;2.00;;;-0.10;99.90;;;;;;6215529;23;20075;-83
2023/03/15 05:15:38;;;;;;;10.67;2.00;;;-0.10;99.90;;;;;;6186938;23;20016;-83
2023/03/15 05:18:15;;;;;;;10.43;1.90;;;1.40;99.90;;;;;;6187874;23;20337;-83
2023/03/15 05:20:46;;;;;;;7.23;1.60;;;0.40;99.90;;;;;;6215203;23;20013;-83
2023/03/15 05:23:15;;;;;;;7.13;1.67;;;-0.20;99.90;;;;;;6215217;23;20035;-83
2023/03/15 05:25:48;;;;;;;12.20;1.90;;;-0.10;99.90;;;;;;6215200;23;20044;-83
2023/03/15 05:28:17;;;;;;;10.67;2.00;;;1.00;99.90;;;;;;6236162;23;20080;-83
2023/03/15 05:30:42;;;;;;;9.50;1.80;;;-0.20;99.90;;;;;;6219595;23;20047;-83
2023/03/15 05:33:18;;;;;;;12.17;1.80;;;-0.10;99.90;;;;;;6189013;23;20020;-82
2023/03/15 05:35:44;;;;;;;8.90;1.73;;;-0.30;99.90;;;;;;6221028;23;20055;-83
2023/03/15 05:38:14;;;;;;;10.77;2.20;;;-0.20;99.90;;;;;;6189241;23;20012;-82
2023/03/15 05:40:48;;;;;;;11.70;2.00;;;-0.10;99.90;;;;;;6214986;23;20051;-82
2023/03/15 05:43:14;;;;;;;8.83;1.90;;;-0.10;99.90;;;;;;6188932;23;20047;-82
2023/03/15 05:45:53;;;;;;;7.57;1.90;;;0.60;99.90;;;;;;6187094;23;20012;-82
2023/03/15 05:48:36;;;;;;;10.53;2.30;;;-0.10;99.90;;;;;;6188628;23;20021;-83
2023/03/15 05:51:07;;;;;;;12.60;2.35;;;0.30;99.90;;;;;;6215802;23;20015;-83
2023/03/15 05:53:51;;;;;;;11.00;1.90;;;-0.50;99.90;;;;;;6187317;23;20069;-82
2023/03/15 06:05:01;;;;;;;14.00;2.07;;;1.10;99.90;;;;;;6193307;23;20032;-82
2023/03/15 06:07:37;;;;;;;11.87;2.17;;;0.60;99.90;;;;;;6174122;23;20075;-82
2023/03/15 06:10:06;;;;;;;9.60;2.00;;;-0.30;99.90;;;;;;6157310;23;20093;-83
2023/03/15 06:12:37;;;;;;;12.07;2.00;;;0.00;99.90;;;;;;6155371;23;20080;-83
2023/03/15 06:15:06;;;;;;;10.43;1.90;;;0.40;99.90;;;;;;6128240;23;20025;-82
2023/03/15 06:17:38;;;;;;;11.33;1.90;;;0.20;99.90;;;;;;6128777;23;20481;-83
2023/03/15 06:20:24;;;;;;;13.87;2.20;;;0.50;99.90;;;;;;6128528;23;20072;-83
2023/03/15 06:23:01;;;;;;;8.63;1.77;;;1.40;99.90;;;;;;6153782;23;20076;-82
2023/03/15 06:25:30;;;;;;;10.70;2.13;;;0.20;99.90;;;;;;6128415;23;20026;-83
2023/03/15 06:28:01;;;;;;;8.83;2.00;;;0.10;99.90;;;;;;6127617;23;20025;-83
2023/03/15 06:30:27;;;;;;;8.17;1.90;;;0.20;99.90;;;;;;6128418;23;20028;-83
2023/03/15 06:33:15;;;;;;;11.13;2.00;;;0.20;99.90;;;;;;6154870;23;20057;-83
2023/03/15 06:42:12;;;;;;;8.17;2.17;;;0.40;99.90;;;;;;6153536;23;20024;-83
2023/03/15 06:53:04;;;;;;;9.07;2.00;;;0.40;99.90;;;;;;6156354;23;20092;-83
2023/03/15 06:55:29;;;;;;;10.80;2.10;;;0.40;99.90;;;;;;6130157;23;20446;-83
2023/03/15 06:57:55;;;;;;;9.37;2.10;;;2.40;99.90;;;;;;6160556;23;20027;-83
2023/03/15 07:00:37;;;;;;;10.40;1.70;;;1.20;99.90;;;;;;6136623;23;20013;-82
2023/03/15 07:03:22;;;;;;;9.13;2.00;;;0.20;99.90;;;;;;6129930;23;20037;-85
2023/03/15 07:06:06;;;;;;;9.37;1.70;;;1.40;99.90;;;;;;6136396;23;20490;-82
2023/03/15 07:08:31;;;;;;;10.00;2.08;;;0.60;99.90;;;;;;6133322;23;20077;-82
2023/03/15 07:11:16;;;;;;;13.13;2.33;;;0.60;99.90;;;;;;6130185;23;20048;-82
2023/03/15 07:13:45;;;;;;;9.87;2.10;;;2.10;99.90;;;;;;6129909;23;20017;-82
2023/03/15 07:16:10;;;;;;;8.37;1.90;;;2.20;99.90;;;;;;6156792;23;20014;-81
2023/03/15 07:18:36;;;;;;;8.80;1.80;;;0.50;99.90;;;;;;6128966;23;20465;-82
2023/03/15 07:21:06;;;;;;;8.30;1.90;;;0.70;99.90;;;;;;6156901;23;20079;-81
2023/03/15 07:23:32;;;;;;;9.60;1.97;;;1.00;99.90;;;;;;6129895;23;20021;-82
2023/03/15 07:25:58;;;;;;;7.70;2.00;;;0.90;99.90;;;;;;6129306;23;20017;-85
2023/03/15 07:28:24;;;;;;;12.60;2.10;;;1.10;99.90;;;;;;6129630;23;20018;-82
2023/03/15 07:30:59;;;;;;;8.63;1.70;;;1.10;99.90;;;;;;6155955;23;20017;-84
2023/03/15 07:33:26;;;;;;;7.63;1.60;;;1.20;99.90;;;;;;6156120;23;20009;-83
2023/03/15 07:35:52;;;;;;;11.47;2.10;;;1.30;99.90;;;;;;6130493;23;20022;-84
2023/03/15 07:38:22;;;;;;;7.73;1.77;;;1.30;99.90;;;;;;6126310;23;20009;-84
2023/03/15 07:40:47;;;;;;;10.20;1.77;;;1.40;99.90;;;;;;6129841;23;20017;-84
2023/03/15 07:43:13;;;;;;;11.57;2.20;;;1.50;99.90;;;;;;6129620;23;20386;-84
2023/03/15 07:45:39;;;;;;;8.60;2.00;;;1.50;99.90;;;;;;6155126;23;20024;-84
2023/03/15 07:48:05;;;;;;;9.20;1.70;;;1.60;99.90;;;;;;6129077;23;20018;-84
2023/03/15 07:50:31;;;;;;;9.53;1.70;;;1.60;99.90;;;;;;6128848;23;20500;-84
2023/03/15 07:52:56;;;;;;;8.63;1.77;;;1.70;99.90;;;;;;6128650;23;20018;-84
2023/03/15 07:55:22;;;;;;;9.93;2.20;;;3.10;99.90;;;;;;6154653;23;20353;-82
2023/03/15 07:57:48;;;;;;;8.83;1.80;;;1.90;99.90;;;;;;6128726;23;20076;-84
2023/03/15 08:00:14;;;;;;;7.73;1.60;;;1.90;99.90;;;;;;6128501;23;20491;-84
2023/03/15 08:02:39;;;;;;;10.23;1.63;;;2.00;99.90;;;;;;6130058;23;20013;-84
2023/03/15 08:05:08;;;;;;;10.20;1.83;;;2.00;99.90;;;;;;6156059;23;20021;-86
2023/03/15 08:07:35;;;;;;;7.00;1.90;;;2.20;99.90;;;;;;6153526;23;20382;-83
2023/03/15 08:10:01;;;;;;;7.93;1.80;;;2.20;99.90;;;;;;6129983;23;20028;-83
2023/03/15 08:12:34;;;;;;;8.27;1.77;;;3.40;99.90;;;;;;6153675;23;20025;-83
2023/03/15 08:14:59;;;;;;;8.17;1.70;;;2.90;99.90;;;;;;6129168;23;20013;-84
2023/03/15 08:17:40;;;;;;;8.43;1.70;;;2.50;99.90;;;;;;6155537;23;20021;-84
2023/03/15 08:20:32;;;;;;;8.23;2.00;;;2.80;99.90;;;;;;6128440;23;20013;-83
2023/03/15 08:23:15;;;;;;;10.03;1.87;;;2.70;99.90;;;;;;6130013;23;20018;-84
2023/03/15 08:25:59;;;;;;;11.73;1.80;;;2.60;99.90;;;;;;6130483;23;20040;-85
2023/03/15 08:28:25;;;;;;;;;;;4.90;99.90;;;;;;6146257;23;20020;-83
2023/03/15 08:30:50;;;;;;;9.23;1.80;;;2.70;99.90;;;;;;6160450;23;19917;-83
2023/03/15 08:33:16;;;;;;;6.73;1.90;;;3.10;99.90;;;;;;6156356;23;20014;-83
2023/03/15 08:35:41;;;;;;;11.73;2.00;;;3.20;99.90;;;;;;6148136;23;20021;-82
2023/03/15 08:38:08;;;;;;;10.50;3.17;;;3.30;99.90;;;;;;6158903;23;20025;-83
2023/03/15 08:40:34;;;;;;;11.50;2.13;;;4.40;99.90;;;;;;6129867;23;20018;-83
2023/03/15 08:43:00;;;;;;;11.17;1.70;;;3.60;99.90;;;;;;6128974;23;20370;-83
2023/03/15 08:45:53;;;;;;;13.57;2.23;;;3.60;99.90;;;;;;6111156;23;20394;-84
2023/03/15 08:48:28;;;;;;;10.07;1.60;;;2.50;99.90;;;;;;6155297;23;20052;-84
2023/03/15 08:50:54;;;;;;;9.37;1.73;;;3.90;99.90;;;;;;6129986;23;20017;-84
2023/03/15 08:53:21;;;;;;;13.43;2.30;;;3.70;99.90;;;;;;6156564;23;20074;-84
2023/03/15 08:55:48;;;;;;;10.03;2.10;;;4.10;99.90;;;;;;6128472;23;20055;-83
2023/03/15 08:58:14;;;;;;;9.87;2.60;;;5.10;99.90;;;;;;6129737;23;20060;-84
2023/03/15 09:00:47;;;;;;;8.90;1.90;;;4.20;99.90;;;;;;6129645;23;20018;-84
2023/03/15 09:06:33;;;;;;;8.25;2.10;;;3.70;99.90;;;;;;6147275;23;20029;-84
2023/03/15 09:12:49;;;;;;;9.67;2.10;;;5.40;99.90;;;;;;6070811;23;20199;-82
2023/03/15 09:15:16;;;;;;;8.97;1.57;;;4.60;99.90;;;;;;6129359;23;20046;-81
2023/03/15 09:17:42;;;;;;;10.03;2.13;;;4.30;99.90;;;;;;6153824;23;20032;-84
2023/03/15 09:20:21;;;;;;;10.90;2.10;;;4.60;99.90;;;;;;6129878;23;20017;-84
2023/03/15 09:22:53;;;;;;;8.97;1.83;;;4.80;99.90;;;;;;6155457;23;20018;-83
2023/03/15 09:25:19;;;;;;;11.30;2.20;;;4.90;99.90;;;;;;6128411;23;20014;-84
2023/03/15 09:27:44;;;;;;;10.37;1.77;;;5.00;99.90;;;;;;6155091;23;20512;-83
2023/03/15 09:30:11;;;;;;;11.53;2.20;;;5.30;99.90;;;;;;6129611;23;20021;-84
2023/03/15 09:32:36;;;;;;;9.57;1.70;;;5.40;99.90;;;;;;6128249;23;20022;-83
2023/03/15 09:35:04;;;;;;;9.93;2.00;;;5.50;99.90;;;;;;6130123;23;20080;-84
2023/03/15 09:37:29;;;;;;;10.90;1.90;;;5.50;99.90;;;;;;6154754;23;20383;-82
2023/03/15 09:39:55;;;;;;;10.13;1.87;;;5.60;99.90;;;;;;6129410;23;20049;-83
2023/03/15 09:42:31;;;;;;;10.73;2.00;;;5.60;99.90;;;;;;6129046;23;20017;-84
2023/03/15 09:45:13;;;;;;;8.00;1.73;;;5.50;99.90;;;;;;6128627;23;20017;-84
2023/03/15 09:47:53;;;;;;;7.63;1.80;;;5.40;99.90;;;;;;6128739;23;20028;-83
2023/03/15 09:50:31;;;;;;;9.87;1.80;;;5.30;99.90;;;;;;6129153;23;20010;-84
2023/03/15 09:53:02;;;;;;;8.90;2.03;;;6.30;99.90;;;;;;6164645;23;20104;-84
2023/03/15 09:55:28;;;;;;;9.73;2.30;;;5.40;99.90;;;;;;6128879;23;20121;-84
2023/03/15 09:58:23;;;;;;;8.97;1.67;;;5.50;99.90;;;;;;6118197;23;19997;-84
2023/03/15 10:00:53;;;;;;;7.37;1.80;;;6.50;99.90;;;;;;6136680;23;20017;-84
2023/03/15 10:03:40;;;;;;;9.13;1.93;;;5.50;99.90;;;;;;6129831;23;20029;-83
2023/03/15 10:06:22;;;;;;;7.63;1.80;;;5.60;99.90;;;;;;6150535;23;20005;-83
2023/03/15 10:08:53;;;;;;;11.43;1.83;;;5.80;99.90;;;;;;6131098;23;20017;-84
2023/03/15 10:11:41;;;;;;;8.27;1.70;;;7.10;99.90;;;;;;6129865;23;20017;-84
2023/03/15 10:14:45;;;;;;;7.97;2.00;;;7.20;99.90;;;;;;6128817;23;20018;-84
2023/03/15 10:17:14;;;;;;;8.38;1.80;;;6.30;99.90;;;;;;6130005;23;20017;-84
2023/03/15 10:19:53;;;;;;;9.10;1.77;;;8.20;99.90;;;;;;6130061;23;20021;-85
2023/03/15 10:22:35;;;;;;;9.77;1.97;;;6.70;99.90;;;;;;6157825;23;20048;-84
2023/03/15 10:25:13;;;;;;;12.17;2.07;;;6.60;99.90;;;;;;6131295;23;20489;-84
2023/03/15 10:28:09;;;;;;;9.23;1.70;;;6.60;99.90;;;;;;6156419;23;20017;-85
2023/03/15 10:30:37;;;;;;;8.73;1.77;;;6.70;99.90;;;;;;6157582;23;20020;-84
2023/03/15 10:33:12;;;;;;;7.47;1.60;;;7.40;99.90;;;;;;6131532;23;20021;-84
2023/03/15 10:35:54;;;;;;;6.80;1.80;;;6.90;99.90;;;;;;6156309;23;20029;-87
2023/03/15 10:38:23;;;;;;;7.15;1.98;;;7.30;99.90;;;;;;6131698;23;20014;-85
2023/03/15 10:40:57;;;;;;;6.57;1.47;;;7.50;99.90;;;;;;6130404;23;20014;-86
2023/03/15 10:43:28;;;;;;;7.33;1.50;;;7.00;99.90;;;;;;6130967;23;20017;-85
2023/03/15 10:46:12;;;;;;;9.10;1.73;;;7.10;99.90;;;;;;6156074;23;20022;-85
2023/03/15 10:48:50;;;;;;;9.88;1.80;;;7.30;99.90;;;;;;6155214;23;20359;-85
2023/03/15 10:51:24;;;;;;;7.17;1.70;;;8.20;99.90;;;;;;6130948;23;20024;-86
2023/03/15 10:53:58;;;;;;;6.68;1.73;;;8.00;99.90;;;;;;6130946;23;20083;-86
2023/03/15 10:56:27;;;;;;;7.30;1.60;;;8.70;99.90;;;;;;6155722;23;20017;-86
2023/03/15 10:58:54;;;;;;;5.80;1.40;;;7.30;99.90;;;;;;6130459;23;20017;-86
2023/03/15 11:01:33;;;;;;;7.63;1.93;;;7.40;99.90;;;;;;6131183;23;20068;-86
2023/03/15 11:04:27;;;;;;;8.47;1.63;;;7.70;99.90;;;;;;6156701;23;20022;-86
2023/03/15 11:06:56;;;;;;;8.68;1.70;;;7.00;99.90;;;;;;6130946;23;20018;-85
2023/03/15 11:13:00;;;;;;;7.50;1.60;;;7.80;99.90;;;;;;6156737;23;20450;-86
2023/03/15 11:25:14;;;;;;;13.33;1.80;;;8.30;99.90;;;;;;6126496;23;20030;-86
2023/03/15 11:28:30;;;;;;;8.43;1.85;;;8.90;99.90;;;;;;6134982;23;20045;-85
2023/03/15 11:31:00;;;;;;;8.57;1.90;;;7.80;99.90;;;;;;6112874;23;20018;-85
2023/03/15 11:33:58;;;;;;;6.83;1.50;;;8.80;99.90;;;;;;6101333;23;20018;-84
2023/03/15 11:36:28;;;;;;;9.40;1.90;;;7.90;99.90;;;;;;6117653;23;20006;-85
2023/03/15 11:38:54;;;;;;;4.90;1.50;;;8.40;99.90;;;;;;6135124;23;20018;-85
2023/03/15 11:41:36;;;;;;;6.20;1.50;;;8.70;99.90;;;;;;6101756;23;20021;-85
2023/03/15 11:44:18;;;;;;;7.35;1.70;;;8.90;99.90;;;;;;6126757;23;20061;-87
2023/03/15 11:47:32;;;;;;;7.85;1.80;;;10.00;99.90;;;;;;6100972;23;20157;-85
2023/03/15 11:49:58;;;;;;;5.65;1.90;;;9.20;99.90;;;;;;6089239;23;20022;-86
2023/03/15 11:52:28;;;;;;;7.75;1.75;;;10.10;99.90;;;;;;6099644;23;20046;-85
2023/03/15 11:55:03;;;;;;;9.90;1.85;;;9.30;99.90;;;;;;6127291;23;20045;-85
2023/03/15 11:57:50;;;;;;;8.65;1.95;;;9.20;99.90;;;;;;6101313;23;20014;-90
2023/03/15 12:00:28;;;;;;;8.43;2.05;;;10.60;99.90;;;;;;6100668;23;20025;-86
2023/03/15 12:03:38;;;;;;;7.13;1.50;;;9.40;99.90;;;;;;6101811;23;20041;-88
2023/03/15 12:06:15;;;;;;;8.50;1.70;;;9.00;99.90;;;;;;6088615;23;20022;-88
2023/03/15 12:08:54;;;;;;;8.77;1.70;;;10.30;99.90;;;;;;6106403;23;20018;-88
2023/03/15 12:11:45;;;;;;;7.57;1.70;;;9.50;99.90;;;;;;6138196;23;20033;-88
2023/03/15 12:14:52;;;;;;;8.85;1.60;;;8.20;99.90;;;;;;6153093;23;20025;-90
2023/03/15 12:17:37;;;;;;;6.93;1.40;;;8.20;99.90;;;;;;6086640;23;20022;-89
2023/03/15 12:24:11;;;;;;;4.90;1.40;;;9.60;99.90;;;;;;6149564;23;20072;-89
2023/03/15 12:27:02;;;;;;;5.93;1.60;;;8.30;99.90;;;;;;6081184;23;20038;-89
2023/03/15 12:29:31;;;;;;;8.48;1.80;;;8.40;99.90;;;;;;6133447;23;20029;-92
2023/03/15 12:32:17;;;;;;;6.43;1.48;;;9.10;99.90;;;;;;6069373;23;20094;-92
2023/03/15 12:35:15;;;;;;;6.05;1.50;;;10.00;99.90;;;;;;6118044;23;20028;-90
2023/03/15 12:37:52;;;;;;;8.23;2.00;;;9.00;99.90;;;;;;6156550;23;20022;-90
2023/03/15 12:40:23;;;;;;;5.90;1.55;;;10.30;99.90;;;;;;6129516;23;20343;-91
2023/03/15 12:43:00;;;;;;;7.95;1.90;;;10.70;99.90;;;;;;6130528;23;20018;-93
2023/03/15 12:45:37;;;;;;;6.30;1.60;;;11.20;99.90;;;;;;6129886;23;20061;-91
2023/03/15 13:00:26;;;;;;;5.75;1.70;;;10.10;99.90;;;;;;6158076;23;20454;-94
2023/03/15 13:03:25;;;;;;;6.63;1.50;;;10.10;99.90;;;;;;6160315;23;20052;-92
2023/03/15 13:06:29;;;;;;;7.03;1.90;;;8.90;96.90;;;;;;6179301;23;20049;-89
2023/03/15 13:09:33;;;;;;;6.13;1.43;;;9.90;99.10;;;;;;6178913;23;20052;-87
2023/03/15 13:12:23;;;;;;;6.28;1.52;;;10.10;98.40;;;;;;6158808;23;20018;-88
2023/03/15 13:15:01;;;;;;;6.07;1.60;;;10.20;99.90;;;;;;6159496;23;20044;-91
2023/03/15 13:17:51;;;;;;;5.88;1.58;;;9.50;97.40;;;;;;6186145;23;20457;-90
2023/03/15 13:20:44;;;;;;;5.97;1.73;;;9.80;97.80;;;;;;6160626;23;20027;-90
2023/03/15 13:23:30;;;;;;;7.32;1.83;;;9.60;98.60;;;;;;6158743;23;20017;-90
2023/03/15 13:26:10;;;;;;;6.07;1.50;;;9.90;98.50;;;;;;6160043;23;20282;-89
2023/03/15 13:28:48;;;;;;;6.03;1.70;;;9.80;99.90;;;;;;6160197;23;20025;-91
2023/03/15 13:31:32;;;;;;;10.10;1.85;;;9.80;99.90;;;;;;6185936;23;20020;-89
2023/03/15 13:34:14;;;;;;;;;;;9.80;98.20;;;;;;6187063;23;20017;-90
2023/03/15 13:36:53;;;;;;;6.75;1.70;;;10.10;98.60;;;;;;6158855;23;19916;-90
2023/03/15 13:39:29;;;;;;;8.15;1.70;;;11.00;98.10;;;;;;6160359;23;20044;-89
2023/03/15 13:41:59;;;;;;;7.47;1.85;;;10.10;99.90;;;;;;6160146;23;20047;-90
2023/03/15 13:44:25;;;;;;;7.22;2.00;;;11.60;99.90;;;;;;6159125;23;20434;-90
2023/03/15 13:47:25;;;;;;;7.22;1.60;;;11.70;98.90;;;;;;6162284;23;20016;-90
2023/03/15 13:50:04;;;;;;;6.50;1.70;;;9.70;96.80;;;;;;6185900;23;20140;-87
2023/03/15 13:52:30;;;;;;;6.28;1.50;;;10.30;98.10;;;;;;6157798;23;20032;-87
2023/03/15 13:54:58;;;;;;;7.18;1.60;;;10.70;99.90;;;;;;6184936;23;20021;-87
2023/03/15 14:05:00;;;;;;;7.22;1.60;;;9.90;99.30;;;;;;6034199;23;20090;-90
2023/03/15 14:07:54;;;;;;;6.78;1.60;;;9.90;96.70;;;;;;6064970;23;20114;-87
2023/03/15 14:10:36;;;;;;;7.10;1.80;;;9.70;98.80;;;;;;6066300;23;20015;-89
2023/03/15 14:13:48;;;;;;;6.65;1.63;;;9.70;96.10;;;;;;6064502;23;20027;-86
2023/03/15 14:16:33;;;;;;;6.75;1.60;;;9.10;96.60;;;;;;6041412;23;20026;-86
2023/03/15 14:19:21;;;;;;;7.15;1.80;;;9.10;99.90;;;;;;6064387;23;20030;-87
2023/03/15 14:22:29;;;;;;;7.97;1.70;;;9.10;97.60;;;;;;6064970;23;20468;-87
2023/03/15 14:24:54;;;;;;;8.38;2.25;;;9.30;98.10;;;;;;6065376;23;20015;-87
2023/03/15 14:27:27;;;;;;;9.10;1.83;;;9.40;99.90;;;;;;6054822;23;20023;-86
2023/03/15 14:30:19;;;;;;;5.68;1.60;;;11.20;99.90;;;;;;6042382;23;20021;-87
2023/03/15 14:33:03;;;;;;;7.57;1.60;;;9.40;97.00;;;;;;6071964;23;20029;-86
2023/03/15 14:35:31;;;;;;;;;;;11.00;97.90;;;;;;6126805;23;20022;-86
2023/03/15 14:38:31;;;;;;;8.25;1.73;;;10.70;97.20;;;;;;6128382;23;19927;-86
2023/03/15 14:41:25;;;;;;;6.13;1.63;;;9.60;97.80;;;;;;6127053;23;20021;-86
2023/03/15 14:44:15;;;;;;;8.40;1.90;;;10.60;97.60;;;;;;6152655;23;20013;-86
2023/03/15 14:46:40;;;;;;;6.70;1.60;;;9.40;98.20;;;;;;6150970;23;20093;-87
2023/03/15 14:49:09;;;;;;;7.32;1.50;;;11.00;99.90;;;;;;6127045;23;20055;-85
2023/03/15 14:51:35;;;;;;;8.98;1.98;;;10.80;99.90;;;;;;6137779;23;20025;-86
2023/03/15 14:54:10;;;;;;;7.85;1.67;;;9.30;99.90;;;;;;6153232;23;20067;-86
2023/03/15 14:56:36;;;;;;;6.20;1.60;;;9.30;99.90;;;;;;6153640;23;20025;-85
2023/03/15 14:59:14;;;;;;;6.95;1.70;;;9.40;99.90;;;;;;6153460;23;20140;-86
2023/03/15 15:01:45;;;;;;;6.80;1.80;;;10.00;99.40;;;;;;6152151;23;20057;-85
2023/03/15 15:04:11;;;;;;;7.85;1.92;;;11.10;99.90;;;;;;6155869;23;20024;-86
2023/03/15 15:06:55;;;;;;;7.97;1.92;;;9.80;99.30;;;;;;6155321;23;20397;-85
2023/03/15 15:09:30;;;;;;;7.45;1.75;;;11.20;98.30;;;;;;6153733;23;20021;-87
2023/03/15 15:11:56;;;;;;;7.65;1.75;;;10.00;99.60;;;;;;6195887;23;20073;-86
2023/03/15 15:14:28;;;;;;;6.53;1.83;;;10.80;99.90;;;;;;6179398;23;20020;-86
2023/03/15 15:17:06;;;;;;;6.50;1.80;;;11.40;99.70;;;;;;6161143;23;20010;-86
2023/03/15 15:19:50;;;;;;;6.82;1.70;;;10.20;98.20;;;;;;6157364;23;20231;-83
2023/03/15 15:22:16;;;;;;;;;;;11.70;98.00;;;;;;6129925;23;20017;-87
2023/03/15 15:24:45;;;;;;;7.63;1.58;;;10.20;94.50;;;;;;6130134;23;19991;-86
2023/03/15 15:27:14;;;;;;;6.88;1.73;;;11.30;99.50;;;;;;6130900;23;20017;-88
2023/03/15 15:29:39;;;;;;;6.90;1.60;;;10.90;98.80;;;;;;6155386;23;20097;-86
2023/03/15 15:32:05;;;;;;;9.23;1.65;;;11.10;99.80;;;;;;6157846;23;20049;-86
2023/03/15 15:34:32;;;;;;;6.50;1.50;;;10.10;97.50;;;;;;6158239;23;20022;-86
2023/03/15 15:36:59;;;;;;;5.72;1.50;;;11.80;99.90;;;;;;6158727;23;20469;-87
2023/03/15 15:39:46;;;;;;;5.75;1.50;;;11.90;99.90;;;;;;6130894;23;20021;-86
2023/03/15 15:46:15;;;;;;;6.85;1.50;;;10.00;99.90;;;;;;6089132;23;20025;-86
2023/03/15 15:48:43;;;;;;;6.68;1.50;;;10.40;98.20;;;;;;6129925;23;20025;-86
2023/03/15 15:51:28;;;;;;;6.57;1.70;;;10.40;99.90;;;;;;6129771;23;20028;-86